Time;durP1;ratioP1;P1;durP2;ratioP2;P2;SDS_P1;SDS_P2;PMS_P1;PMS_P2;Temp;Humidity;BMP_temperature;BMP_pressure;BME280_temperature;BME280_humidity;BME280_pressure;Samples;Min_cycle;Max_cycle;Signal;HPM_P1;HPM_P2
2023/01/25 00:00:43;;;;;;;;;18.00;16.20;;;;;;;;5332317;27;8833;-73
2023/01/25 00:03:14;;;;;;;;;20.20;19.40;;;;;;;;5297178;27;8830;-73
2023/01/25 00:05:46;;;;;;;;;20.60;19.80;;;;;;;;5279461;27;8764;-73
2023/01/25 00:08:19;;;;;;;;;9.20;9.20;;;;;;;;5296859;27;8829;-74
2023/01/25 00:10:51;;;;;;;;;13.60;13.40;;;;;;;;5297027;27;8826;-73
2023/01/25 00:13:22;;;;;;;;;14.60;14.60;;;;;;;;5296623;27;9476;-73
2023/01/25 00:15:53;;;;;;;;;15.80;15.80;;;;;;;;5313220;27;8773;-73
2023/01/25 00:18:24;;;;;;;;;17.80;17.20;;;;;;;;5313911;27;8765;-73
2023/01/25 00:20:56;;;;;;;;;13.00;13.00;;;;;;;;5313644;27;8778;-73
2023/01/25 00:23:27;;;;;;;;;20.20;19.20;;;;;;;;5295903;27;8782;-73
2023/01/25 00:25:58;;;;;;;;;13.00;11.20;;;;;;;;5314085;27;8887;-73
2023/01/25 00:28:29;;;;;;;;;15.00;14.20;;;;;;;;5313653;27;8761;-73
2023/01/25 00:31:01;;;;;;;;;21.50;21.25;;;;;;;;5313444;27;8780;-73
2023/01/25 00:33:43;;;;;;;;;18.00;18.00;;;;;;;;5279740;27;12074;-73
2023/01/25 00:36:38;;;;;;;;;15.00;14.20;;;;;;;;5313715;27;8750;-72
2023/01/25 00:39:11;;;;;;;;;23.80;22.80;;;;;;;;5313385;27;8753;-72
2023/01/25 00:41:43;;;;;;;;;20.00;20.00;;;;;;;;5313274;27;8777;-74
2023/01/25 00:44:14;;;;;;;;;20.20;19.60;;;;;;;;5299323;27;8738;-74
2023/01/25 00:47:04;;;;;;;;;24.60;24.60;;;;;;;;5305560;27;8788;-74
2023/01/25 00:49:36;;;;;;;;;26.20;22.60;;;;;;;;5321745;27;8746;-74
2023/01/25 00:52:27;;;;;;;;;27.60;27.60;;;;;;;;5332899;27;8750;-74
2023/01/25 00:54:58;;;;;;;;;34.20;30.80;;;;;;;;5295770;27;8834;-74
2023/01/25 00:57:29;;;;;;;;;26.20;24.80;;;;;;;;5313173;27;8778;-74
2023/01/25 01:00:00;;;;;;;;;24.00;22.20;;;;;;;;5312941;27;8770;-74
2023/01/25 01:02:32;;;;;;;;;34.60;30.60;;;;;;;;5295915;27;8778;-74
2023/01/25 01:05:04;;;;;;;;;36.40;34.60;;;;;;;;5313312;27;8762;-75
2023/01/25 01:07:36;;;;;;;;;26.40;25.00;;;;;;;;5296295;27;9461;-73
2023/01/25 01:10:07;;;;;;;;;28.00;26.20;;;;;;;;5278595;27;8778;-74
2023/01/25 01:12:57;;;;;;;;;22.00;22.00;;;;;;;;5298228;27;8799;-75
2023/01/25 01:15:28;;;;;;;;;23.20;23.20;;;;;;;;5331087;27;8750;-74
2023/01/25 01:17:59;;;;;;;;;23.60;22.80;;;;;;;;5312857;27;8801;-74
2023/01/25 01:20:31;;;;;;;;;27.20;24.20;;;;;;;;5295541;27;8766;-75
2023/01/25 01:23:02;;;;;;;;;19.00;19.00;;;;;;;;5295387;27;8943;-75
2023/01/25 01:25:33;;;;;;;;;21.80;20.60;;;;;;;;5312853;27;8883;-75
2023/01/25 01:28:04;;;;;;;;;22.20;22.20;;;;;;;;5295618;27;8742;-75
2023/01/25 01:31:04;;;;;;;;;18.00;18.00;;;;;;;;5332620;27;8880;-74
2023/01/25 01:33:40;;;;;;;;;26.20;24.40;;;;;;;;5296422;27;8765;-75
2023/01/25 01:36:15;;;;;;;;;14.80;14.80;;;;;;;;5314593;27;8772;-75
2023/01/25 01:38:46;;;;;;;;;16.00;14.40;;;;;;;;5335481;27;8900;-74
2023/01/25 01:41:18;;;;;;;;;24.00;20.20;;;;;;;;5316847;27;8842;-74
2023/01/25 01:43:51;;;;;;;;;16.80;16.40;;;;;;;;5300033;27;8785;-75
2023/01/25 01:46:26;;;;;;;;;24.40;22.20;;;;;;;;5316711;27;8801;-74
2023/01/25 01:48:58;;;;;;;;;20.80;19.00;;;;;;;;5300586;27;8846;-74
2023/01/25 01:51:50;;;;;;;;;22.60;21.60;;;;;;;;5316946;27;8786;-74
2023/01/25 01:54:28;;;;;;;;;25.40;24.20;;;;;;;;5300385;27;8746;-73
2023/01/25 01:57:11;;;;;;;;;22.80;22.80;;;;;;;;5282682;27;8769;-74
2023/01/25 02:00:24;;;;;;;;;18.00;15.00;;;;;;;;5319740;27;8781;-74
2023/01/25 02:02:56;;;;;;;;;15.00;13.00;;;;;;;;5305891;27;8916;-74
2023/01/25 02:05:52;;;;;;;;;25.20;24.00;;;;;;;;5334718;27;8750;-72
2023/01/25 02:08:25;;;;;;;;;29.80;29.20;;;;;;;;5316358;27;8765;-73
2023/01/25 02:10:56;;;;;;;;;36.80;30.40;;;;;;;;5334951;27;9511;-73
2023/01/25 02:13:27;;;;;;;;;35.80;34.60;;;;;;;;5298866;27;8778;-73
2023/01/25 02:15:58;;;;;;;;;38.20;36.00;;;;;;;;5316120;27;8839;-73
2023/01/25 02:18:30;;;;;;;;;36.00;33.20;;;;;;;;5299701;27;8773;-72
2023/01/25 02:21:01;;;;;;;;;31.40;27.20;;;;;;;;5316759;27;8833;-72
2023/01/25 02:23:51;;;;;;;;;32.60;31.00;;;;;;;;5315640;27;8993;-73
2023/01/25 02:26:23;;;;;;;;;33.80;32.40;;;;;;;;5299678;27;8776;-73
2023/01/25 02:29:00;;;;;;;;;30.60;28.80;;;;;;;;5299114;27;8842;-74
2023/01/25 02:31:31;;;;;;;;;26.00;25.40;;;;;;;;5298457;27;8773;-75
2023/01/25 02:34:04;;;;;;;;;36.20;33.20;;;;;;;;5298883;27;8773;-73
2023/01/25 02:36:35;;;;;;;;;72.00;46.60;;;;;;;;5299503;27;8796;-75
2023/01/25 02:39:14;;;;;;;;;41.00;40.20;;;;;;;;5334381;27;8766;-73
2023/01/25 02:41:48;;;;;;;;;31.20;31.20;;;;;;;;5281831;27;9558;-73
2023/01/25 02:44:25;;;;;;;;;29.00;20.00;;;;;;;;5281742;27;8766;-73
2023/01/25 02:46:56;;;;;;;;;34.80;31.80;;;;;;;;5298114;27;8814;-73
2023/01/25 02:49:28;;;;;;;;;17.20;15.80;;;;;;;;5315814;27;8777;-74
2023/01/25 02:51:59;;;;;;;;;35.40;34.80;;;;;;;;5315221;27;8777;-74
2023/01/25 02:54:48;;;;;;;;;28.60;27.40;;;;;;;;5315492;27;8879;-75
2023/01/25 02:57:19;;;;;;;;;33.20;31.00;;;;;;;;5315534;27;8804;-74
2023/01/25 03:00:09;;;;;;;;;27.20;27.20;;;;;;;;5333484;27;8794;-76
2023/01/25 03:02:40;;;;;;;;;28.00;27.60;;;;;;;;5280725;27;8805;-76
2023/01/25 03:05:11;;;;;;;;;27.50;27.25;;;;;;;;5314962;27;8773;-75
2023/01/25 03:08:00;;;;;;;;;38.00;36.20;;;;;;;;5317657;27;11410;-74
2023/01/25 03:10:50;;;;;;;;;31.20;27.60;;;;;;;;5333665;27;8908;-74
2023/01/25 03:13:21;;;;;;;;;32.60;32.20;;;;;;;;5298063;27;8777;-74
2023/01/25 03:16:11;;;;;;;;;34.20;32.60;;;;;;;;5317944;27;8774;-75
2023/01/25 03:19:00;;;;;;;;;29.80;29.20;;;;;;;;5333498;27;8773;-75
2023/01/25 03:21:32;;;;;;;;;22.40;22.00;;;;;;;;5280833;27;8896;-74
2023/01/25 03:24:04;;;;;;;;;34.00;34.00;;;;;;;;5298739;27;8907;-74
2023/01/25 03:27:13;;;;;;;;;29.20;28.20;;;;;;;;5333795;27;9472;-75
2023/01/25 03:30:02;;;;;;;;;34.20;29.40;;;;;;;;5325970;27;8768;-76
2023/01/25 03:32:52;;;;;;;;;27.60;26.60;;;;;;;;5312528;27;8775;-76
2023/01/25 03:35:24;;;;;;;;;26.00;26.00;;;;;;;;5332584;27;8777;-75
2023/01/25 03:37:56;;;;;;;;;24.40;24.20;;;;;;;;5280812;27;8770;-76
2023/01/25 03:40:28;;;;;;;;;35.80;34.20;;;;;;;;5297777;27;8792;-76
2023/01/25 03:42:59;;;;;;;;;33.40;29.40;;;;;;;;5332900;27;8924;-74
2023/01/25 03:45:30;;;;;;;;;30.60;27.60;;;;;;;;5314624;27;9664;-75
2023/01/25 03:48:01;;;;;;;;;32.80;30.20;;;;;;;;5284870;28;8798;-74
2023/01/25 03:50:33;;;;;;;;;19.60;19.60;;;;;;;;5288564;28;9587;-75
2023/01/25 03:53:26;;;;;;;;;20.20;17.80;;;;;;;;5255167;28;8778;-75
2023/01/25 03:56:01;;;;;;;;;30.40;30.40;;;;;;;;5257308;27;8778;-76
2023/01/25 03:58:35;;;;;;;;;41.00;40.60;;;;;;;;5280026;27;9487;-76
2023/01/25 04:01:06;;;;;;;;;48.40;45.00;;;;;;;;5297354;27;9480;-77
2023/01/25 04:03:38;;;;;;;;;20.60;19.20;;;;;;;;5297219;27;8907;-77
2023/01/25 04:06:10;;;;;;;;;38.80;37.80;;;;;;;;5279947;27;8809;-77
2023/01/25 04:08:42;;;;;;;;;47.00;45.00;;;;;;;;5278113;28;8782;-77
2023/01/25 04:11:14;;;;;;;;;34.80;31.80;;;;;;;;5271877;28;8774;-75
2023/01/25 04:13:48;;;;;;;;;29.00;26.60;;;;;;;;5262443;27;8800;-77
2023/01/25 04:16:21;;;;;;;;;21.60;18.40;;;;;;;;5297446;27;8780;-74
2023/01/25 04:19:18;;;;;;;;;39.00;39.00;;;;;;;;5313608;27;8780;-74
2023/01/25 04:21:50;;;;;;;;;35.60;35.20;;;;;;;;5313926;27;8762;-76
2023/01/25 04:24:22;;;;;;;;;43.00;42.60;;;;;;;;5313809;27;9518;-74
2023/01/25 04:26:53;;;;;;;;;51.60;45.80;;;;;;;;5292842;27;8813;-77
2023/01/25 04:29:24;;;;;;;;;40.00;36.60;;;;;;;;5296372;27;9488;-76
2023/01/25 04:31:56;;;;;;;;;29.40;28.80;;;;;;;;5296384;27;9448;-75
2023/01/25 04:34:28;;;;;;;;;30.60;29.60;;;;;;;;5294226;27;8776;-75
2023/01/25 04:36:59;;;;;;;;;39.40;36.40;;;;;;;;5309518;27;8776;-75
2023/01/25 04:39:34;;;;;;;;;27.40;27.20;;;;;;;;5275342;27;8770;-75
2023/01/25 04:42:05;;;;;;;;;32.20;32.20;;;;;;;;5292984;27;9466;-75
2023/01/25 04:44:37;;;;;;;;;34.60;33.00;;;;;;;;5292148;27;8783;-75
2023/01/25 04:47:08;;;;;;;;;35.20;34.80;;;;;;;;5293862;27;8790;-76
2023/01/25 04:49:40;;;;;;;;;39.20;36.60;;;;;;;;5313586;27;9486;-76
2023/01/25 04:52:11;;;;;;;;;40.40;39.80;;;;;;;;5295700;27;8750;-77
2023/01/25 04:54:42;;;;;;;;;56.00;50.20;;;;;;;;5296202;27;8781;-77
2023/01/25 04:57:15;;;;;;;;;45.80;38.60;;;;;;;;5296037;27;8880;-76
2023/01/25 04:59:52;;;;;;;;;51.20;47.40;;;;;;;;5296175;27;8765;-78
2023/01/25 05:02:25;;;;;;;;;27.20;27.20;;;;;;;;5295699;27;8797;-73
2023/01/25 05:04:57;;;;;;;;;42.20;37.20;;;;;;;;5272517;28;8762;-71
2023/01/25 05:07:28;;;;;;;;;43.60;39.40;;;;;;;;5309296;27;8807;-71
2023/01/25 05:18:46;;;;;;;;;53.80;47.20;;;;;;;;5331060;27;8690;-70
2023/01/25 05:24:30;;;;;;;;;27.60;27.60;;;;;;;;5331283;27;8810;-71
2023/01/25 05:27:04;;;;;;;;;37.60;35.40;;;;;;;;5311040;27;8792;-71
2023/01/25 05:29:59;;;;;;;;;42.40;37.40;;;;;;;;5307360;27;8758;-71
2023/01/25 05:32:56;;;;;;;;;33.80;33.80;;;;;;;;5314468;27;8778;-68
2023/01/25 05:35:28;;;;;;;;;42.20;40.80;;;;;;;;5309500;27;8770;-70
2023/01/25 05:38:17;;;;;;;;;34.00;33.80;;;;;;;;5272160;28;8766;-70
2023/01/25 05:40:49;;;;;;;;;36.20;34.20;;;;;;;;5253606;28;8774;-72
2023/01/25 05:47:43;;;;;;;;;34.00;32.40;;;;;;;;5288058;28;8690;-72
2023/01/25 05:50:32;;;;;;;;;31.00;30.40;;;;;;;;5273345;28;8772;-71
2023/01/25 05:53:13;;;;;;;;;34.20;30.80;;;;;;;;5261883;27;8772;-70
2023/01/25 05:56:05;;;;;;;;;31.40;28.60;;;;;;;;5309488;27;8774;-71
2023/01/25 05:58:38;;;;;;;;;38.40;35.60;;;;;;;;5274770;27;8756;-70
2023/01/25 06:05:32;;;;;;;;;28.00;28.00;;;;;;;;5330661;27;9420;-69
2023/01/25 06:08:04;;;;;;;;;40.20;36.60;;;;;;;;5295452;27;8805;-68
2023/01/25 06:10:46;;;;;;;;;33.20;32.40;;;;;;;;5312168;27;8758;-69
2023/01/25 06:13:17;;;;;;;;;38.20;35.40;;;;;;;;5312136;27;8849;-69
2023/01/25 06:15:52;;;;;;;;;47.80;44.80;;;;;;;;5293450;27;8773;-69
2023/01/25 06:18:43;;;;;;;;;49.60;47.20;;;;;;;;5287385;27;8784;-69
2023/01/25 06:21:37;;;;;;;;;39.40;38.40;;;;;;;;5309455;27;8791;-69
2023/01/25 06:24:08;;;;;;;;;36.00;35.20;;;;;;;;5296288;27;8830;-69
2023/01/25 06:26:39;;;;;;;;;34.00;33.40;;;;;;;;5315726;27;8766;-71
2023/01/25 06:29:10;;;;;;;;;30.75;30.00;;;;;;;;5315573;27;8794;-70
2023/01/25 06:31:41;;;;;;;;;36.80;35.40;;;;;;;;5298391;27;10423;-72
2023/01/25 06:34:12;;;;;;;;;32.00;30.25;;;;;;;;5294179;27;8902;-70
2023/01/25 06:36:43;;;;;;;;;39.60;35.60;;;;;;;;5293855;27;11478;-71
2023/01/25 06:39:14;;;;;;;;;36.60;35.60;;;;;;;;5312617;27;8764;-71
2023/01/25 06:41:46;;;;;;;;;36.50;33.50;;;;;;;;5312664;27;8852;-71
2023/01/25 06:44:16;;;;;;;;;45.60;41.60;;;;;;;;5260255;27;9559;-70
2023/01/25 06:46:47;;;;;;;;;34.75;33.00;;;;;;;;5312661;27;8855;-71
2023/01/25 06:49:18;;;;;;;;;31.00;30.50;;;;;;;;5294469;27;9169;-70
2023/01/25 06:51:49;;;;;;;;;45.20;39.60;;;;;;;;5317709;27;12200;-70
2023/01/25 06:58:50;;;;;;;;;35.80;35.80;;;;;;;;5312526;27;9111;-70
2023/01/25 07:01:25;;;;;;;;;35.80;34.80;;;;;;;;5298416;27;8763;-71
2023/01/25 07:03:57;;;;;;;;;35.20;34.00;;;;;;;;5318170;27;8882;-70
2023/01/25 07:06:32;;;;;;;;;49.40;45.20;;;;;;;;5291516;27;9645;-71
2023/01/25 07:09:04;;;;;;;;;46.40;43.60;;;;;;;;5336215;27;8772;-70
2023/01/25 07:11:36;;;;;;;;;41.20;38.60;;;;;;;;5334068;27;9462;-70
2023/01/25 07:14:07;;;;;;;;;39.20;33.60;;;;;;;;5315149;27;8799;-70
2023/01/25 07:16:38;;;;;;;;;37.60;35.60;;;;;;;;5333292;27;9462;-69
2023/01/25 07:19:27;;;;;;;;;41.80;36.80;;;;;;;;5333627;27;8732;-70
2023/01/25 07:21:58;;;;;;;;;43.00;40.00;;;;;;;;5314829;27;8772;-70
2023/01/25 07:24:29;;;;;;;;;43.60;40.80;;;;;;;;5314952;27;10336;-70
2023/01/25 07:27:00;;;;;;;;;42.20;41.40;;;;;;;;5334277;27;8767;-69
2023/01/25 07:29:31;;;;;;;;;42.80;40.20;;;;;;;;5333097;27;8756;-70
2023/01/25 07:32:03;;;;;;;;;46.40;42.80;;;;;;;;5297606;27;8791;-70
2023/01/25 07:34:34;;;;;;;;;31.20;27.00;;;;;;;;5333411;27;8898;-70
2023/01/25 07:37:05;;;;;;;;;38.20;31.20;;;;;;;;5315104;27;8768;-68
2023/01/25 07:39:36;;;;;;;;;28.80;27.80;;;;;;;;5314380;27;8795;-70
2023/01/25 07:42:07;;;;;;;;;33.60;32.80;;;;;;;;5297282;27;8760;-70
2023/01/25 07:44:40;;;;;;;;;31.80;29.40;;;;;;;;5314715;27;8799;-70
2023/01/25 07:47:15;;;;;;;;;42.00;34.60;;;;;;;;5314519;27;8760;-71
2023/01/25 07:49:46;;;;;;;;;34.60;32.80;;;;;;;;5297676;27;8764;-70
2023/01/25 07:52:18;;;;;;;;;43.40;41.40;;;;;;;;5332699;27;9497;-69
2023/01/25 07:55:09;;;;;;;;;54.80;46.20;;;;;;;;5314929;27;8776;-69
2023/01/25 07:57:40;;;;;;;;;34.00;31.20;;;;;;;;5297028;27;8784;-68
2023/01/25 08:00:12;;;;;;;;;13.00;13.00;;;;;;;;5280423;27;8833;-69
2023/01/25 08:02:43;;;;;;;;;35.00;33.20;;;;;;;;5314288;27;8804;-69
2023/01/25 08:05:14;;;;;;;;;36.50;35.00;;;;;;;;5280137;27;9447;-69
2023/01/25 08:07:45;;;;;;;;;35.50;33.25;;;;;;;;5313848;27;8808;-69
2023/01/25 08:10:35;;;;;;;;;45.60;35.80;;;;;;;;5299941;27;8756;-69
2023/01/25 08:13:06;;;;;;;;;49.50;44.50;;;;;;;;5313922;27;8819;-69
2023/01/25 08:15:38;;;;;;;;;38.20;32.60;;;;;;;;5332102;27;8768;-69
2023/01/25 08:18:10;;;;;;;;;20.20;20.20;;;;;;;;5313881;27;8764;-70
2023/01/25 08:20:40;;;;;;;;;23.75;23.75;;;;;;;;5313697;27;8811;-70
2023/01/25 08:23:11;;;;;;;;;28.75;28.75;;;;;;;;5331953;27;8792;-70
2023/01/25 08:25:42;;;;;;;;;41.25;36.25;;;;;;;;5313530;27;11456;-69
2023/01/25 08:28:13;;;;;;;;;23.50;23.50;;;;;;;;5297106;27;8809;-69
2023/01/25 08:30:44;;;;;;;;;31.00;30.60;;;;;;;;5296691;27;11036;-68
2023/01/25 08:33:15;;;;;;;;;31.25;30.25;;;;;;;;5331889;27;8910;-69
2023/01/25 08:35:56;;;;;;;;;28.00;25.50;;;;;;;;5313414;27;11442;-68
2023/01/25 08:38:46;;;;;;;;;35.20;31.60;;;;;;;;5299778;27;9332;-69
2023/01/25 08:41:18;;;;;;;;;33.60;31.60;;;;;;;;5331900;27;8800;-68
2023/01/25 08:43:50;;;;;;;;;31.00;29.20;;;;;;;;5312729;27;8804;-69
2023/01/25 08:46:22;;;;;;;;;40.00;34.40;;;;;;;;5331168;27;8768;-69
2023/01/25 08:48:54;;;;;;;;;32.60;31.00;;;;;;;;5331228;27;8840;-69
2023/01/25 08:51:25;;;;;;;;;42.00;40.00;;;;;;;;5313428;27;8773;-68
2023/01/25 08:53:56;;;;;;;;;37.40;32.00;;;;;;;;5313210;27;8772;-68
2023/01/25 08:56:27;;;;;;;;;43.00;38.80;;;;;;;;5312839;27;8765;-69
2023/01/25 08:58:58;;;;;;;;;54.75;46.50;;;;;;;;5313278;27;8774;-68
2023/01/25 09:01:29;;;;;;;;;54.50;48.75;;;;;;;;5331182;27;10965;-69
2023/01/25 09:04:00;;;;;;;;;35.40;34.80;;;;;;;;5331024;27;8871;-69
2023/01/25 09:06:31;;;;;;;;;39.20;32.40;;;;;;;;5291547;27;8795;-69
2023/01/25 09:09:03;;;;;;;;;35.80;35.60;;;;;;;;5308943;27;8795;-69
2023/01/25 09:11:35;;;;;;;;;24.40;23.00;;;;;;;;5308726;27;8875;-69
2023/01/25 09:14:06;;;;;;;;;34.80;29.80;;;;;;;;5310410;27;8807;-69
2023/01/25 09:16:37;;;;;;;;;43.00;41.25;;;;;;;;5291177;27;8779;-69
2023/01/25 09:19:08;;;;;;;;;34.80;33.60;;;;;;;;5308771;27;9458;-70
2023/01/25 09:21:57;;;;;;;;;34.20;32.60;;;;;;;;5309078;27;8767;-69
2023/01/25 09:24:28;;;;;;;;;35.00;33.25;;;;;;;;5308368;27;8793;-69
2023/01/25 09:26:59;;;;;;;;;35.50;33.50;;;;;;;;5308779;27;8791;-69
2023/01/25 09:29:30;;;;;;;;;34.00;32.00;;;;;;;;5309600;27;11547;-69
2023/01/25 09:32:01;;;;;;;;;25.50;22.00;;;;;;;;5309059;27;8775;-70
2023/01/25 09:34:52;;;;;;;;;43.20;37.40;;;;;;;;5309705;27;11458;-70
2023/01/25 09:37:23;;;;;;;;;31.75;31.50;;;;;;;;5308073;27;8806;-69
2023/01/25 09:39:54;;;;;;;;;29.00;27.80;;;;;;;;5308942;27;11393;-68
2023/01/25 09:42:50;;;;;;;;;33.20;31.00;;;;;;;;5308779;27;8807;-68
2023/01/25 09:45:39;;;;;;;;;29.80;25.40;;;;;;;;5308823;27;8798;-68
2023/01/25 09:48:13;;;;;;;;;33.40;32.00;;;;;;;;5310019;27;8821;-69
2023/01/25 09:51:03;;;;;;;;;26.00;26.00;;;;;;;;5307900;27;8779;-69
2023/01/25 09:53:41;;;;;;;;;35.20;32.20;;;;;;;;5309084;27;8844;-69
2023/01/25 09:56:19;;;;;;;;;31.80;29.60;;;;;;;;5308404;27;8836;-69
2023/01/25 09:58:56;;;;;;;;;30.00;28.40;;;;;;;;5295184;27;8833;-69
2023/01/25 10:01:27;;;;;;;;;36.20;34.80;;;;;;;;5314145;27;8776;-69
2023/01/25 10:04:28;;;;;;;;;17.20;16.20;;;;;;;;5297935;27;8945;-69
2023/01/25 10:07:09;;;;;;;;;31.20;28.00;;;;;;;;5316496;27;8899;-69
2023/01/25 10:09:40;;;;;;;;;31.00;30.00;;;;;;;;5334851;27;8772;-69
2023/01/25 10:12:11;;;;;;;;;23.40;22.80;;;;;;;;5334960;27;8796;-69
2023/01/25 10:14:42;;;;;;;;;34.50;31.50;;;;;;;;5316268;27;8868;-69
2023/01/25 10:17:18;;;;;;;;;27.50;26.75;;;;;;;;5316679;27;11436;-67
2023/01/25 10:20:07;;;;;;;;;19.20;18.60;;;;;;;;5283294;27;9629;-70
2023/01/25 10:35:43;;;;;;;;;23.20;22.00;;;;;;;;5333679;27;8736;-71
2023/01/25 10:38:28;;;;;;;;;33.80;33.60;;;;;;;;5315559;27;8772;-70
2023/01/25 10:49:51;;;;;;;;;19.40;19.40;;;;;;;;5333294;27;8760;-69
2023/01/25 10:52:29;;;;;;;;;18.40;18.40;;;;;;;;5334419;27;8787;-69
2023/01/25 10:55:06;;;;;;;;;18.40;16.80;;;;;;;;5299050;27;8756;-69
2023/01/25 10:57:37;;;;;;;;;49.20;44.20;;;;;;;;5315719;27;8768;-70
2023/01/25 11:00:33;;;;;;;;;21.80;21.80;;;;;;;;5334932;27;8774;-69
2023/01/25 11:03:04;;;;;;;;;23.80;20.40;;;;;;;;5281199;27;8792;-69
2023/01/25 11:14:51;;;;;;;;;20.60;20.00;;;;;;;;5312083;27;8731;-70
2023/01/25 11:17:40;;;;;;;;;26.40;24.00;;;;;;;;5311847;27;8846;-70
2023/01/25 11:20:17;;;;;;;;;18.50;18.50;;;;;;;;5294027;27;8790;-70
2023/01/25 11:22:53;;;;;;;;;13.40;13.40;;;;;;;;5277293;27;8805;-69
2023/01/25 11:25:29;;;;;;;;;19.60;19.40;;;;;;;;5293488;27;8774;-69
2023/01/25 11:28:16;;;;;;;;;23.40;23.00;;;;;;;;5293228;27;8774;-69
2023/01/25 11:30:48;;;;;;;;;10.60;10.60;;;;;;;;5277375;27;9501;-69
2023/01/25 11:33:20;;;;;;;;;24.60;24.60;;;;;;;;5277181;27;8786;-68
2023/01/25 11:36:00;;;;;;;;;15.00;14.00;;;;;;;;5293275;27;8802;-69
2023/01/25 11:38:31;;;;;;;;;22.80;22.20;;;;;;;;5293869;27;8786;-69
2023/01/25 11:41:11;;;;;;;;;30.20;24.40;;;;;;;;5294253;27;8800;-68
2023/01/25 11:43:51;;;;;;;;;16.00;16.00;;;;;;;;5294206;27;8790;-69
2023/01/25 11:46:36;;;;;;;;;31.00;30.00;;;;;;;;5293998;27;8811;-69
2023/01/25 11:49:15;;;;;;;;;28.60;23.60;;;;;;;;5293198;27;8807;-70
2023/01/25 11:52:09;;;;;;;;;20.20;18.40;;;;;;;;5312131;27;8770;-70
2023/01/25 11:54:52;;;;;;;;;21.80;19.40;;;;;;;;5311559;27;8812;-71
2023/01/25 11:57:50;;;;;;;;;22.20;21.00;;;;;;;;5293206;27;8746;-70
2023/01/25 12:00:42;;;;;;;;;21.40;20.80;;;;;;;;5279383;27;8837;-70
2023/01/25 12:03:41;;;;;;;;;28.80;25.00;;;;;;;;5311744;27;8809;-69
2023/01/25 12:06:35;;;;;;;;;26.60;24.20;;;;;;;;5311139;27;8774;-69
2023/01/25 12:09:24;;;;;;;;;14.80;13.60;;;;;;;;5284529;27;8821;-70
2023/01/25 12:12:07;;;;;;;;;24.40;23.40;;;;;;;;5312123;27;9523;-70
2023/01/25 12:14:39;;;;;;;;;27.80;25.00;;;;;;;;5259324;27;8782;-70
2023/01/25 12:17:26;;;;;;;;;19.50;18.25;;;;;;;;5293033;27;8786;-71
2023/01/25 12:20:00;;;;;;;;;33.80;33.80;;;;;;;;5292339;27;11447;-69
2023/01/25 12:22:43;;;;;;;;;21.60;21.60;;;;;;;;5292729;27;8862;-71
2023/01/25 12:25:24;;;;;;;;;18.20;18.20;;;;;;;;5310664;27;8837;-71
2023/01/25 12:28:13;;;;;;;;;16.00;16.00;;;;;;;;5295459;27;8755;-70
2023/01/25 12:30:44;;;;;;;;;14.25;13.00;;;;;;;;5292720;27;8784;-71
2023/01/25 12:33:19;;;;;;;;;19.75;18.50;;;;;;;;5292815;27;11365;-71
2023/01/25 12:35:55;;;;;;;;;18.40;17.40;;;;;;;;5292476;27;9437;-70
2023/01/25 12:38:42;;;;;;;;;25.60;25.60;;;;;;;;5292044;27;8777;-70
2023/01/25 12:41:30;;;;;;;;;16.00;16.00;;;;;;;;5292090;27;8778;-70
2023/01/25 12:44:13;;;;;;;;;22.00;20.40;;;;;;;;5292012;27;8828;-71
2023/01/25 12:46:44;;;;;;;;;16.40;16.40;;;;;;;;5275383;27;8897;-67
2023/01/25 12:49:28;;;;;;;;;18.75;18.75;;;;;;;;5275066;27;8892;-68
2023/01/25 12:52:02;;;;;;;;;16.20;15.40;;;;;;;;5275234;27;10021;-69
2023/01/25 12:54:36;;;;;;;;;17.40;17.40;;;;;;;;5274868;27;8785;-69
2023/01/25 12:57:18;;;;;;;;;19.00;17.20;;;;;;;;5291828;27;8762;-71
2023/01/25 13:00:09;;;;;;;;;18.40;17.40;;;;;;;;5291914;27;9500;-71
2023/01/25 13:02:40;;;;;;;;;18.60;17.80;;;;;;;;5280910;27;8774;-69
2023/01/25 13:05:32;;;;;;;;;23.50;22.00;;;;;;;;5291787;27;8834;-68
2023/01/25 13:08:22;;;;;;;;;35.40;35.00;;;;;;;;5291515;27;8771;-69
2023/01/25 13:10:58;;;;;;;;;17.40;16.00;;;;;;;;5292334;27;8794;-72
2023/01/25 13:13:29;;;;;;;;;17.40;16.40;;;;;;;;5313155;27;8775;-69
2023/01/25 13:16:39;;;;;;;;;9.20;9.20;;;;;;;;5281376;27;8823;-67
2023/01/25 13:19:21;;;;;;;;;14.00;14.00;;;;;;;;5250379;28;8909;-69
2023/01/25 13:30:50;;;;;;;;;7.00;7.00;;;;;;;;5279908;27;8758;-69
2023/01/25 13:33:34;;;;;;;;;12.40;12.40;;;;;;;;5275813;27;8774;-68
2023/01/25 13:36:24;;;;;;;;;16.00;15.00;;;;;;;;5291168;27;8758;-68
2023/01/25 13:43:23;;;;;;;;;8.00;8.00;;;;;;;;5309049;27;8805;-68
2023/01/25 13:50:25;;;;;;;;;12.20;11.60;;;;;;;;5309719;27;8714;-68
2023/01/25 13:52:58;;;;;;;;;9.00;9.00;;;;;;;;5291309;27;9544;-68
2023/01/25 13:59:59;;;;;;;;;25.60;23.80;;;;;;;;5308925;27;9536;-69
2023/01/25 14:07:08;;;;;;;;;9.60;9.60;;;;;;;;5321633;27;8728;-69
2023/01/25 14:09:40;;;;;;;;;4.00;4.00;;;;;;;;5309495;27;8782;-69
2023/01/25 14:12:22;;;;;;;;;11.40;10.60;;;;;;;;5309233;27;8837;-68
2023/01/25 14:14:53;;;;;;;;;7.00;7.00;;;;;;;;5274856;27;8774;-69
2023/01/25 14:17:24;;;;;;;;;5.00;5.00;;;;;;;;5308906;27;8786;-69
2023/01/25 14:19:55;;;;;;;;;11.00;11.00;;;;;;;;5309145;27;8770;-69
2023/01/25 14:22:26;;;;;;;;;8.80;8.40;;;;;;;;5329277;27;11410;-69
2023/01/25 14:25:06;;;;;;;;;9.75;9.75;;;;;;;;5330775;27;8771;-69
2023/01/25 14:27:57;;;;;;;;;9.00;9.00;;;;;;;;5330674;27;10307;-68
2023/01/25 14:30:29;;;;;;;;;11.80;10.60;;;;;;;;5298243;27;8803;-69
2023/01/25 14:33:15;;;;;;;;;11.00;11.00;;;;;;;;5312371;27;8806;-69
2023/01/25 14:35:46;;;;;;;;;8.20;8.20;;;;;;;;5330801;27;9440;-69
2023/01/25 14:38:23;;;;;;;;;12.20;12.20;;;;;;;;5330870;27;8784;-69
2023/01/25 14:40:57;;;;;;;;;11.80;10.80;;;;;;;;5311519;27;8776;-69
2023/01/25 14:43:28;;;;;;;;;10.40;10.40;;;;;;;;5313118;27;8910;-69
2023/01/25 14:45:59;;;;;;;;;6.60;6.20;;;;;;;;5298986;27;8837;-69
2023/01/25 14:48:34;;;;;;;;;15.60;15.60;;;;;;;;5315565;27;9487;-68
2023/01/25 14:51:05;;;;;;;;;12.60;12.60;;;;;;;;5334079;27;8756;-68
2023/01/25 14:54:09;;;;;;;;;8.40;8.40;;;;;;;;5316077;27;9522;-68
2023/01/25 14:56:45;;;;;;;;;8.40;8.40;;;;;;;;5294417;27;8870;-68
2023/01/25 14:59:30;;;;;;;;;8.00;8.00;;;;;;;;5277586;27;8770;-68
2023/01/25 15:02:14;;;;;;;;;3.40;3.40;;;;;;;;5291206;27;8940;-68
2023/01/25 15:04:56;;;;;;;;;10.00;10.00;;;;;;;;5300140;27;8778;-69
2023/01/25 15:07:35;;;;;;;;;9.00;8.60;;;;;;;;5355344;27;8773;-69
2023/01/25 15:10:18;;;;;;;;;13.20;13.20;;;;;;;;5336597;27;8924;-68
2023/01/25 15:13:07;;;;;;;;;11.80;11.80;;;;;;;;5336830;27;8940;-68
2023/01/25 15:16:01;;;;;;;;;7.60;7.60;;;;;;;;5337448;27;8790;-69
2023/01/25 15:18:52;;;;;;;;;40.60;39.00;;;;;;;;5350598;27;8775;-68
2023/01/25 15:21:24;;;;;;;;;12.20;12.20;;;;;;;;5298188;27;8780;-70
2023/01/25 15:23:56;;;;;;;;;10.00;10.00;;;;;;;;5298541;27;8783;-69
2023/01/25 15:26:48;;;;;;;;;14.60;14.60;;;;;;;;5315345;27;9592;-69
2023/01/25 15:29:20;;;;;;;;;15.20;13.80;;;;;;;;5297506;27;8776;-70
2023/01/25 15:31:52;;;;;;;;;13.00;13.00;;;;;;;;5314700;27;9582;-70
2023/01/25 15:34:29;;;;;;;;;13.00;12.00;;;;;;;;5314782;27;8772;-69
2023/01/25 15:41:24;;;;;;;;;20.60;17.60;;;;;;;;5332708;27;8720;-70
2023/01/25 15:48:21;;;;;;;;;9.80;9.80;;;;;;;;5332843;27;9453;-68
2023/01/25 15:50:54;;;;;;;;;18.20;18.00;;;;;;;;5333076;27;8799;-69
2023/01/25 15:53:25;;;;;;;;;10.00;10.00;;;;;;;;5280106;27;8776;-69
2023/01/25 16:00:22;;;;;;;;;18.00;16.00;;;;;;;;5332115;27;8740;-69
2023/01/25 16:07:27;;;;;;;;;18.60;18.60;;;;;;;;5332479;27;9410;-70
2023/01/25 16:10:19;;;;;;;;;23.20;21.40;;;;;;;;5308563;27;9537;-69
2023/01/25 16:12:50;;;;;;;;;19.40;18.80;;;;;;;;5309399;27;8823;-69
2023/01/25 16:19:46;;;;;;;;;20.60;18.20;;;;;;;;5310538;27;8723;-69
2023/01/25 16:22:17;;;;;;;;;18.00;17.00;;;;;;;;5292704;27;8803;-69
2023/01/25 16:24:48;;;;;;;;;19.60;19.60;;;;;;;;5292418;27;9497;-68
2023/01/25 16:27:24;;;;;;;;;21.40;21.40;;;;;;;;5292726;27;8795;-68
2023/01/25 16:29:55;;;;;;;;;13.20;13.20;;;;;;;;5292271;27;8881;-70
2023/01/25 16:32:26;;;;;;;;;14.80;14.80;;;;;;;;5310909;27;8832;-68
2023/01/25 16:34:57;;;;;;;;;31.00;30.80;;;;;;;;5309242;27;8768;-68
2023/01/25 16:37:28;;;;;;;;;18.25;18.25;;;;;;;;5275424;27;8836;-68
2023/01/25 16:40:22;;;;;;;;;18.00;16.00;;;;;;;;5310454;27;11157;-68
2023/01/25 16:42:53;;;;;;;;;18.80;18.00;;;;;;;;5309396;27;8878;-68
2023/01/25 16:45:24;;;;;;;;;24.50;24.50;;;;;;;;5275258;27;8775;-69
2023/01/25 16:47:55;;;;;;;;;34.00;33.00;;;;;;;;5309191;27;8787;-69
2023/01/25 16:50:26;;;;;;;;;20.60;19.40;;;;;;;;5291771;27;8859;-69
2023/01/25 16:52:58;;;;;;;;;16.50;16.50;;;;;;;;5308790;27;8775;-69
2023/01/25 16:55:48;;;;;;;;;23.00;22.80;;;;;;;;5310638;27;8776;-68
2023/01/25 16:58:19;;;;;;;;;19.60;19.00;;;;;;;;5291697;27;9435;-69
2023/01/25 17:00:50;;;;;;;;;18.00;18.00;;;;;;;;5309773;27;8791;-69
2023/01/25 17:03:21;;;;;;;;;15.00;15.00;;;;;;;;5291506;27;11483;-68
2023/01/25 17:05:52;;;;;;;;;18.50;17.50;;;;;;;;5274506;27;8803;-67
2023/01/25 17:08:23;;;;;;;;;13.00;12.00;;;;;;;;5309759;27;9477;-70
2023/01/25 17:10:56;;;;;;;;;18.75;17.00;;;;;;;;5274659;27;8835;-67